Time;durP1;ratioP1;P1;durP2;ratioP2;P2;SDS_P1;SDS_P2;PMS_P1;PMS_P2;Temp;Humidity;BMP_temperature;BMP_pressure;BME280_temperature;BME280_humidity;BME280_pressure;Samples;Min_cycle;Max_cycle;Signal;HPM_P1;HPM_P2
2023/12/04 05:06:38;;;;;;;0.43;0.43;;;-3.30;99.90;;;;;;5723513;23;20227;-63
2023/12/04 05:09:04;;;;;;;0.40;0.40;;;-3.20;99.90;;;;;;4939079;29;20262;-64
2023/12/04 05:11:30;;;;;;;0.50;0.50;;;-3.20;99.90;;;;;;4938932;29;20238;-63
2023/12/04 05:13:55;;;;;;;0.43;0.43;;;-3.10;99.90;;;;;;4939066;29;20565;-64
2023/12/04 05:16:21;;;;;;;0.50;0.50;;;-3.10;99.90;;;;;;4940836;29;20212;-63
2023/12/04 05:18:46;;;;;;;0.50;0.50;;;-3.00;99.90;;;;;;4948019;29;20173;-64
2023/12/04 05:21:12;;;;;;;0.50;0.50;;;-3.00;99.90;;;;;;4955409;29;20182;-63
2023/12/04 05:23:38;;;;;;;0.40;0.40;;;-2.90;99.90;;;;;;4950052;29;20213;-63
2023/12/04 05:26:07;;;;;;;0.50;0.50;;;-2.80;99.90;;;;;;4943012;29;20230;-63
2023/12/04 05:28:34;;;;;;;0.43;0.43;;;-2.90;99.90;;;;;;4957996;29;20181;-62
2023/12/04 05:30:59;;;;;;;0.40;0.40;;;-2.90;99.90;;;;;;4955671;28;20227;-64
2023/12/04 05:33:25;;;;;;;0.50;0.50;;;-3.00;99.90;;;;;;4957813;29;20179;-64
2023/12/04 05:35:51;;;;;;;0.60;0.60;;;-3.00;99.90;;;;;;4956190;29;20553;-64
2023/12/04 05:38:17;;;;;;;0.50;0.50;;;-3.00;99.90;;;;;;4957768;29;20603;-64
2023/12/04 05:40:43;;;;;;;0.40;0.40;;;-3.00;99.90;;;;;;4942504;29;20304;-64
2023/12/04 05:43:09;;;;;;;0.50;0.50;;;-3.00;99.90;;;;;;4938397;29;20456;-63
2023/12/04 05:45:35;;;;;;;0.40;0.40;;;-3.00;99.90;;;;;;4938107;29;20191;-63
2023/12/04 05:48:00;;;;;;;0.40;0.40;;;-3.00;99.90;;;;;;4938512;29;20312;-64
2023/12/04 05:50:26;;;;;;;0.40;0.40;;;-3.00;99.90;;;;;;4921075;29;20607;-62
2023/12/04 05:52:52;;;;;;;0.40;0.40;;;-2.90;99.90;;;;;;4954060;29;20676;-63
2023/12/04 05:55:17;;;;;;;0.40;0.40;;;-2.90;99.90;;;;;;4956830;29;20266;-64
2023/12/04 05:57:44;;;;;;;0.40;0.40;;;-2.90;99.90;;;;;;4957396;29;20249;-64
2023/12/04 06:00:13;;;;;;;0.40;0.40;;;-2.90;99.90;;;;;;4957342;29;20595;-63
2023/12/04 06:02:43;;;;;;;0.50;0.50;;;-2.90;99.90;;;;;;4957070;29;20194;-64
2023/12/04 06:05:09;;;;;;;0.40;0.40;;;-2.90;99.90;;;;;;4953918;29;20549;-65
2023/12/04 06:07:37;;;;;;;0.30;0.30;;;-2.90;99.90;;;;;;4937591;29;20197;-63
2023/12/04 06:10:06;;;;;;;0.40;0.40;;;-2.90;99.90;;;;;;4937647;29;20256;-65
2023/12/04 06:12:32;;;;;;;0.40;0.40;;;-2.90;99.90;;;;;;4937923;29;20180;-65
2023/12/04 06:15:00;;;;;;;0.40;0.40;;;-2.90;99.90;;;;;;4937211;29;20182;-65
2023/12/04 06:17:26;;;;;;;0.30;0.30;;;-2.90;99.90;;;;;;4937737;29;20183;-64
2023/12/04 06:19:53;;;;;;;0.40;0.40;;;-2.80;99.90;;;;;;4939859;29;20257;-65
2023/12/04 06:22:21;;;;;;;0.40;0.40;;;-2.80;99.90;;;;;;4956716;29;20293;-65
2023/12/04 06:24:47;;;;;;;0.45;0.45;;;-2.80;99.90;;;;;;4956320;29;20379;-64
2023/12/04 06:27:17;;;;;;;0.40;0.40;;;-2.70;99.90;;;;;;4939389;29;20188;-66
2023/12/04 06:29:44;;;;;;;0.40;0.40;;;-2.80;99.90;;;;;;4956593;29;20173;-65
2023/12/04 06:32:10;;;;;;;0.30;0.30;;;-2.70;99.90;;;;;;4956523;29;20545;-64
2023/12/04 06:34:36;;;;;;;0.40;0.40;;;-2.60;99.90;;;;;;4947515;29;20336;-65
2023/12/04 06:37:10;;;;;;;0.40;0.40;;;-2.60;99.90;;;;;;4937371;29;20233;-62
2023/12/04 06:39:37;;;;;;;0.68;0.68;;;-2.60;99.90;;;;;;4937525;29;20509;-63
2023/12/04 06:42:04;;;;;;;0.40;0.40;;;-2.60;99.90;;;;;;4936306;29;20211;-61
2023/12/04 06:44:30;;;;;;;0.40;0.40;;;-2.50;99.90;;;;;;4936835;29;20205;-64
2023/12/04 06:47:00;;;;;;;0.40;0.40;;;-2.50;99.90;;;;;;4937100;29;20221;-65
2023/12/04 06:49:30;;;;;;;0.60;0.60;;;-2.50;99.90;;;;;;4945387;29;20693;-64
2023/12/04 06:51:56;;;;;;;0.40;0.40;;;-2.50;99.90;;;;;;4942957;29;20179;-63
2023/12/04 06:54:21;;;;;;;0.40;0.40;;;-2.50;99.90;;;;;;4937684;29;20186;-64
2023/12/04 06:56:47;;;;;;;0.40;0.40;;;-2.50;99.90;;;;;;4936822;29;20196;-65
2023/12/04 06:59:12;;;;;;;0.53;0.53;;;-2.50;99.90;;;;;;4936601;29;20564;-66
2023/12/04 07:01:38;;;;;;;0.50;0.50;;;-2.50;99.90;;;;;;4936278;29;20183;-64
2023/12/04 07:04:09;;;;;;;0.50;0.50;;;-2.50;99.90;;;;;;4949758;29;20182;-65
2023/12/04 07:06:36;;;;;;;0.65;0.65;;;-2.40;99.90;;;;;;4938285;29;20232;-64
2023/12/04 07:09:01;;;;;;;0.40;0.40;;;-2.50;99.90;;;;;;4956077;29;20171;-65
2023/12/04 07:11:27;;;;;;;0.40;0.40;;;-2.50;99.90;;;;;;4956075;29;20183;-63
2023/12/04 07:13:52;;;;;;;0.40;0.40;;;-2.50;99.90;;;;;;4954835;29;20552;-66
2023/12/04 07:16:18;;;;;;;0.40;0.40;;;-2.50;99.90;;;;;;4955092;29;20205;-65
2023/12/04 07:18:44;;;;;;;0.40;0.40;;;-2.40;99.90;;;;;;4955873;29;20172;-65
2023/12/04 07:21:09;;;;;;;0.40;0.40;;;-2.40;99.90;;;;;;4955852;29;20549;-64
2023/12/04 07:23:35;;;;;;;0.40;0.40;;;-2.40;99.90;;;;;;4938364;29;20580;-67
2023/12/04 07:26:01;;;;;;;1.17;1.17;;;-2.30;99.90;;;;;;4955374;29;20181;-64
2023/12/04 07:28:26;;;;;;;0.47;0.47;;;-2.30;99.90;;;;;;4950786;29;20193;-66
2023/12/04 07:30:53;;;;;;;0.50;0.50;;;-2.30;99.90;;;;;;4943854;29;20189;-64
2023/12/04 07:33:19;;;;;;;0.50;0.50;;;-2.30;99.90;;;;;;4955435;29;20172;-64
2023/12/04 07:35:45;;;;;;;0.40;0.40;;;-2.30;99.90;;;;;;4954978;29;20195;-65
2023/12/04 07:38:10;;;;;;;0.47;0.47;;;-2.30;99.90;;;;;;4955482;29;20172;-66
2023/12/04 07:40:36;;;;;;;0.50;0.50;;;-2.20;99.90;;;;;;4953759;29;20185;-65
2023/12/04 07:43:02;;;;;;;0.50;0.50;;;-2.20;99.90;;;;;;4954828;29;20705;-65
2023/12/04 07:45:28;;;;;;;0.40;0.40;;;-2.10;99.90;;;;;;4954974;29;20240;-65
2023/12/04 07:47:53;;;;;;;0.50;0.50;;;-2.00;99.90;;;;;;4955497;29;20172;-64
2023/12/04 07:50:19;;;;;;;0.40;0.40;;;-2.10;99.90;;;;;;4955421;29;20809;-66
2023/12/04 07:52:44;;;;;;;0.40;0.40;;;-2.00;99.90;;;;;;4954829;28;20242;-64
2023/12/04 07:55:10;;;;;;;0.40;0.40;;;-1.90;99.90;;;;;;4941694;29;20332;-64
2023/12/04 07:57:36;;;;;;;0.40;0.40;;;-1.90;99.90;;;;;;4936393;29;20172;-64
2023/12/04 08:00:01;;;;;;;0.33;0.33;;;-1.80;99.90;;;;;;4936270;29;20328;-65
2023/12/04 08:02:27;;;;;;;0.40;0.40;;;-1.80;99.90;;;;;;4936484;29;20614;-65
2023/12/04 08:04:54;;;;;;;0.40;0.40;;;-1.70;99.90;;;;;;4935846;29;20465;-66
2023/12/04 08:07:20;;;;;;;0.40;0.40;;;-1.60;99.90;;;;;;4936228;29;20525;-65
2023/12/04 08:09:45;;;;;;;0.50;0.50;;;-1.50;99.90;;;;;;4953658;29;20177;-66
2023/12/04 08:12:11;;;;;;;0.30;0.30;;;-1.50;99.90;;;;;;4955225;29;20176;-66
2023/12/04 08:14:36;;;;;;;0.40;0.40;;;-1.50;99.90;;;;;;4954647;29;20180;-65
2023/12/04 08:17:02;;;;;;;0.40;0.40;;;-1.40;99.90;;;;;;4955302;29;20197;-66
2023/12/04 08:19:28;;;;;;;0.40;0.40;;;-1.30;99.90;;;;;;4955095;29;20191;-65
2023/12/04 08:21:53;;;;;;;0.40;0.40;;;-1.30;99.90;;;;;;4954852;29;20181;-66
2023/12/04 08:24:19;;;;;;;0.40;0.40;;;-1.20;99.90;;;;;;4938216;29;20184;-65
2023/12/04 08:26:45;;;;;;;0.40;0.40;;;-1.10;99.90;;;;;;4918768;29;20219;-67
2023/12/04 08:29:11;;;;;;;1.00;1.00;;;-1.10;99.90;;;;;;4935649;29;20173;-67
2023/12/04 08:31:37;;;;;;;0.50;0.50;;;-1.10;99.90;;;;;;4935510;29;20644;-66
2023/12/04 08:34:02;;;;;;;0.30;0.30;;;-1.00;99.90;;;;;;4935571;29;20289;-66
2023/12/04 08:36:28;;;;;;;0.50;0.50;;;-1.00;99.90;;;;;;4935649;29;20196;-65
2023/12/04 08:38:54;;;;;;;0.40;0.40;;;-1.00;99.90;;;;;;4935953;29;20501;-64
2023/12/04 08:41:20;;;;;;;0.43;0.43;;;-0.90;99.90;;;;;;4935933;29;20178;-65
2023/12/04 08:43:45;;;;;;;0.40;0.40;;;-0.90;99.90;;;;;;4935322;29;20205;-66
2023/12/04 08:46:14;;;;;;;0.30;0.30;;;-0.90;99.90;;;;;;4935351;29;20195;-66
2023/12/04 08:48:41;;;;;;;0.45;0.45;;;-0.90;99.90;;;;;;4935660;29;20177;-65
2023/12/04 08:51:08;;;;;;;0.30;0.30;;;-0.80;99.90;;;;;;4936027;29;20170;-65
2023/12/04 08:53:34;;;;;;;0.40;0.40;;;-0.80;99.90;;;;;;4954597;29;20637;-68
2023/12/04 08:55:59;;;;;;;0.30;0.30;;;-0.70;99.90;;;;;;4954297;29;20646;-66
2023/12/04 08:58:25;;;;;;;0.40;0.40;;;-0.60;99.90;;;;;;4954700;29;20215;-65
2023/12/04 09:00:50;;;;;;;0.50;0.50;;;-0.40;99.90;;;;;;4954916;29;20216;-65
2023/12/04 09:03:16;;;;;;;0.50;0.50;;;-0.30;99.90;;;;;;4954395;29;20667;-64
2023/12/04 09:05:42;;;;;;;0.40;0.40;;;-0.20;99.90;;;;;;4951286;28;20647;-65
2023/12/04 09:08:08;;;;;;;0.30;0.30;;;-0.30;99.90;;;;;;4939107;29;20185;-65
2023/12/04 09:10:33;;;;;;;0.40;0.40;;;-0.20;99.90;;;;;;4940115;29;20182;-65
2023/12/04 09:12:59;;;;;;;0.37;0.37;;;-0.20;99.90;;;;;;4939164;29;20599;-65
2023/12/04 09:15:25;;;;;;;0.70;0.70;;;-0.20;99.90;;;;;;4938855;29;20201;-65
2023/12/04 09:17:50;;;;;;;0.50;0.50;;;-0.10;99.90;;;;;;4938884;29;20414;-66
2023/12/04 09:20:16;;;;;;;0.50;0.50;;;0.00;99.90;;;;;;4941483;29;20185;-64
2023/12/04 09:22:42;;;;;;;0.30;0.30;;;0.00;99.90;;;;;;4938359;29;20216;-64
2023/12/04 09:25:10;;;;;;;0.40;0.40;;;0.10;99.90;;;;;;4938020;29;20237;-64
2023/12/04 09:27:36;;;;;;;0.80;0.80;;;0.00;99.90;;;;;;4938120;29;20264;-64
2023/12/04 09:30:02;;;;;;;0.40;0.40;;;0.10;99.90;;;;;;4938543;29;20201;-64
2023/12/04 09:32:27;;;;;;;0.40;0.40;;;0.10;99.90;;;;;;4938591;29;20182;-64
2023/12/04 09:34:53;;;;;;;0.60;0.60;;;0.00;99.90;;;;;;4936848;29;20256;-64
2023/12/04 09:37:18;;;;;;;0.40;0.40;;;0.10;99.90;;;;;;4957618;29;20270;-64
2023/12/04 09:39:44;;;;;;;0.47;0.47;;;0.10;99.90;;;;;;4957911;29;20622;-64
2023/12/04 09:42:10;;;;;;;0.30;0.30;;;0.10;99.90;;;;;;4957560;29;20204;-63
2023/12/04 09:44:37;;;;;;;0.30;0.30;;;0.20;99.90;;;;;;4957322;29;20177;-64
2023/12/04 09:47:04;;;;;;;0.50;0.50;;;0.30;99.90;;;;;;4957500;29;20321;-64
2023/12/04 09:49:31;;;;;;;0.40;0.40;;;0.30;99.90;;;;;;4941550;29;20181;-64
2023/12/04 09:52:01;;;;;;;0.40;0.40;;;0.30;99.90;;;;;;4938516;29;20170;-64
2023/12/04 09:54:27;;;;;;;0.40;0.40;;;0.30;99.90;;;;;;4937849;29;20185;-64
2023/12/04 09:56:53;;;;;;;0.40;0.40;;;0.30;99.90;;;;;;4937933;29;20216;-64
2023/12/04 09:59:24;;;;;;;0.33;0.33;;;0.20;99.90;;;;;;4937954;29;20169;-64
2023/12/04 10:01:51;;;;;;;0.50;0.50;;;0.20;99.90;;;;;;4940094;29;20220;-64
2023/12/04 10:04:16;;;;;;;0.50;0.50;;;0.10;99.90;;;;;;4957141;29;20169;-64
2023/12/04 10:06:43;;;;;;;0.30;0.30;;;0.10;99.90;;;;;;4956958;29;20216;-64
2023/12/04 10:09:11;;;;;;;0.45;0.45;;;0.00;99.90;;;;;;4957219;29;20174;-64
2023/12/04 10:11:40;;;;;;;0.40;0.40;;;0.00;99.90;;;;;;4957022;29;20173;-64
2023/12/04 10:14:19;;;;;;;0.30;0.30;;;0.00;99.90;;;;;;4956724;29;20260;-64
2023/12/04 10:16:45;;;;;;;0.40;0.40;;;0.10;99.90;;;;;;4952971;28;20201;-64
2023/12/04 10:19:23;;;;;;;0.50;0.50;;;0.00;99.90;;;;;;4937853;29;20576;-64
2023/12/04 10:21:50;;;;;;;0.40;0.40;;;0.10;99.90;;;;;;4937375;29;20671;-64
2023/12/04 10:24:29;;;;;;;0.50;0.50;;;0.20;99.90;;;;;;4937524;29;20207;-65
2023/12/04 10:26:56;;;;;;;0.40;0.40;;;0.20;99.90;;;;;;4937807;29;20193;-64
2023/12/04 10:29:22;;;;;;;0.40;0.40;;;0.30;99.90;;;;;;4937908;29;20165;-64
2023/12/04 10:31:50;;;;;;;0.40;0.40;;;0.30;99.90;;;;;;4949099;29;20264;-65
2023/12/04 10:34:16;;;;;;;0.40;0.40;;;0.40;99.90;;;;;;4956340;29;20468;-64
2023/12/04 10:36:42;;;;;;;0.30;0.30;;;0.40;99.90;;;;;;4956602;29;20220;-64
2023/12/04 10:39:08;;;;;;;0.47;0.47;;;0.40;99.90;;;;;;4956498;29;20208;-64
2023/12/04 10:41:33;;;;;;;0.47;0.47;;;0.50;99.90;;;;;;4956428;29;20627;-63
2023/12/04 10:44:00;;;;;;;0.37;0.37;;;0.50;99.90;;;;;;4956284;29;20207;-63
2023/12/04 10:46:27;;;;;;;0.40;0.40;;;0.60;99.90;;;;;;4944767;29;20193;-63
2023/12/04 10:48:53;;;;;;;0.30;0.30;;;0.60;99.90;;;;;;4937120;29;20173;-63
2023/12/04 10:51:20;;;;;;;0.50;0.50;;;0.70;99.90;;;;;;4936773;29;20170;-63
2023/12/04 10:53:46;;;;;;;0.40;0.40;;;0.80;99.90;;;;;;4936618;29;20667;-68
2023/12/04 10:56:19;;;;;;;0.50;0.50;;;0.90;99.90;;;;;;4936807;29;20201;-65
2023/12/04 10:58:50;;;;;;;0.40;0.40;;;0.90;99.90;;;;;;4936945;29;20170;-67
2023/12/04 11:01:17;;;;;;;0.40;0.40;;;1.00;99.90;;;;;;4954271;29;20177;-65
2023/12/04 11:03:53;;;;;;;0.40;0.40;;;1.10;99.90;;;;;;4955861;29;20558;-68
2023/12/04 11:06:21;;;;;;;0.40;0.40;;;1.10;99.90;;;;;;4955396;29;20236;-65
2023/12/04 11:08:52;;;;;;;0.40;0.40;;;1.00;99.90;;;;;;4956356;29;20583;-68
2023/12/04 11:11:40;;;;;;;0.35;0.35;;;1.10;99.90;;;;;;4955887;29;20247;-65
2023/12/04 11:14:08;;;;;;;0.40;0.40;;;1.10;99.90;;;;;;4939854;29;20216;-67
2023/12/04 11:16:47;;;;;;;0.30;0.30;;;1.10;99.90;;;;;;4936581;29;20201;-66
2023/12/04 11:19:27;;;;;;;0.40;0.40;;;1.20;99.90;;;;;;4937647;29;20188;-67
2023/12/04 11:21:57;;;;;;;0.32;0.32;;;1.30;99.90;;;;;;4936624;29;20228;-67
2023/12/04 11:24:23;;;;;;;0.30;0.30;;;1.40;99.90;;;;;;4936359;29;20560;-66
2023/12/04 11:26:49;;;;;;;0.40;0.40;;;1.40;99.90;;;;;;4936314;29;20292;-66
2023/12/04 11:29:15;;;;;;;0.30;0.30;;;1.40;99.90;;;;;;4951220;29;20184;-65
2023/12/04 11:31:41;;;;;;;0.30;0.30;;;1.40;99.90;;;;;;4938489;29;20173;-66
2023/12/04 11:34:09;;;;;;;0.40;0.40;;;1.40;99.90;;;;;;4927470;29;20236;-66
2023/12/04 11:36:35;;;;;;;0.30;0.30;;;1.40;99.90;;;;;;4936517;29;20201;-67
2023/12/04 11:39:02;;;;;;;0.30;0.30;;;1.30;99.90;;;;;;4936315;29;20185;-65
2023/12/04 11:41:30;;;;;;;0.88;0.88;;;1.40;99.90;;;;;;4936263;29;20683;-66
2023/12/04 11:43:56;;;;;;;0.40;0.40;;;1.30;99.90;;;;;;4936035;29;20217;-65
2023/12/04 11:46:27;;;;;;;0.38;0.38;;;1.30;99.90;;;;;;4935785;29;20197;-65
2023/12/04 11:49:16;;;;;;;0.40;0.40;;;1.30;99.90;;;;;;4946324;29;20169;-66
2023/12/04 11:51:47;;;;;;;0.30;0.30;;;1.30;99.90;;;;;;4954964;29;20189;-67
2023/12/04 11:54:17;;;;;;;0.40;0.40;;;1.30;99.90;;;;;;4955130;29;20662;-64
2023/12/04 11:57:09;;;;;;;0.30;0.30;;;1.30;99.90;;;;;;4955249;29;20188;-66
2023/12/04 11:59:38;;;;;;;0.35;0.35;;;1.40;99.90;;;;;;4944732;29;20182;-68
2023/12/04 12:02:08;;;;;;;0.40;0.40;;;1.40;99.90;;;;;;4950993;29;20659;-69
2023/12/04 12:04:34;;;;;;;0.93;0.93;;;1.30;99.90;;;;;;4935413;29;20260;-64
2023/12/04 12:07:02;;;;;;;0.50;0.50;;;1.30;99.90;;;;;;4935812;29;20216;-65
2023/12/04 12:09:28;;;;;;;0.40;0.40;;;1.30;99.90;;;;;;4935968;29;20256;-67
2023/12/04 12:11:54;;;;;;;0.40;0.40;;;1.20;99.90;;;;;;4935966;29;20169;-70
2023/12/04 12:14:21;;;;;;;0.40;0.40;;;1.20;99.90;;;;;;4935654;29;20633;-67
2023/12/04 12:16:47;;;;;;;0.40;0.40;;;1.10;99.90;;;;;;4922045;29;20200;-68
2023/12/04 12:19:13;;;;;;;0.33;0.33;;;1.00;99.90;;;;;;4954828;29;20228;-67
2023/12/04 12:21:39;;;;;;;0.40;0.40;;;0.90;99.90;;;;;;4954763;29;20409;-69
2023/12/04 12:24:11;;;;;;;0.40;0.40;;;0.90;99.90;;;;;;4954761;29;20200;-68
2023/12/04 12:26:37;;;;;;;0.40;0.40;;;0.90;99.90;;;;;;4954882;29;20207;-67
2023/12/04 12:29:03;;;;;;;0.40;0.40;;;1.00;99.90;;;;;;4955131;29;20165;-66
2023/12/04 12:31:29;;;;;;;0.93;0.93;;;0.90;99.90;;;;;;4946307;29;20208;-65
2023/12/04 12:33:55;;;;;;;0.40;0.40;;;1.00;99.90;;;;;;4935892;29;20263;-68
2023/12/04 12:36:21;;;;;;;0.30;0.30;;;1.00;99.90;;;;;;4935515;29;20492;-65
2023/12/04 12:38:49;;;;;;;0.52;0.52;;;1.00;99.90;;;;;;4935930;29;20174;-67
2023/12/04 12:41:17;;;;;;;0.40;0.40;;;1.00;99.90;;;;;;4939423;29;20169;-69
2023/12/04 12:43:43;;;;;;;0.30;0.30;;;1.00;99.90;;;;;;4957293;29;20212;-66
2023/12/04 12:46:10;;;;;;;0.40;0.40;;;1.00;99.90;;;;;;4958073;29;20199;-66
2023/12/04 12:48:35;;;;;;;0.85;0.85;;;1.00;99.90;;;;;;4958522;29;20496;-67
2023/12/04 12:51:02;;;;;;;0.40;0.40;;;1.00;99.90;;;;;;4958840;29;20199;-65
2023/12/04 12:53:28;;;;;;;0.40;0.40;;;1.00;99.90;;;;;;4958521;29;20175;-67
2023/12/04 12:55:54;;;;;;;6.57;2.30;;;1.00;99.90;;;;;;4956194;29;20670;-67
2023/12/04 12:58:20;;;;;;;0.40;0.40;;;1.00;99.90;;;;;;4958415;29;20179;-66
2023/12/04 13:00:47;;;;;;;0.40;0.40;;;1.00;99.90;;;;;;4958354;29;20200;-68
2023/12/04 13:03:19;;;;;;;0.60;0.60;;;1.00;99.90;;;;;;4958170;29;20224;-67
2023/12/04 13:05:46;;;;;;;0.30;0.30;;;1.10;99.90;;;;;;4957796;29;20199;-65
2023/12/04 13:08:12;;;;;;;0.40;0.40;;;1.10;99.90;;;;;;4958274;29;20294;-65
2023/12/04 13:10:38;;;;;;;0.40;0.40;;;1.10;99.90;;;;;;4926699;29;20185;-65
2023/12/04 13:13:04;;;;;;;0.40;0.40;;;1.10;99.90;;;;;;4938735;29;20424;-68
2023/12/04 13:15:29;;;;;;;0.40;0.40;;;1.20;99.90;;;;;;4938630;29;20202;-67
2023/12/04 13:17:56;;;;;;;0.40;0.40;;;1.20;99.90;;;;;;4938990;29;20508;-66
2023/12/04 13:20:23;;;;;;;0.30;0.30;;;1.30;99.90;;;;;;4938969;29;20181;-66
2023/12/04 13:22:49;;;;;;;0.35;0.35;;;1.30;99.90;;;;;;4921796;29;20232;-66
2023/12/04 13:25:14;;;;;;;0.40;0.40;;;1.30;99.90;;;;;;4942831;29;20225;-69
2023/12/04 13:27:40;;;;;;;0.80;0.80;;;1.20;99.90;;;;;;4938849;29;20540;-66
2023/12/04 13:30:10;;;;;;;0.60;0.60;;;1.20;99.90;;;;;;4938790;29;20212;-70
2023/12/04 13:32:36;;;;;;;0.40;0.40;;;1.10;99.90;;;;;;4921708;29;20185;-67
2023/12/04 13:35:04;;;;;;;1.35;1.25;;;1.10;99.90;;;;;;4938233;29;20200;-69
2023/12/04 13:37:30;;;;;;;0.40;0.40;;;1.20;99.90;;;;;;4938769;29;20181;-66
2023/12/04 13:40:06;;;;;;;0.50;0.50;;;1.20;99.90;;;;;;4955175;29;20208;-69
2023/12/04 13:45:16;;;;;;;0.38;0.38;;;1.30;99.90;;;;;;4957369;29;20199;-69
2023/12/04 13:47:43;;;;;;;0.43;0.43;;;1.30;99.90;;;;;;4957850;29;20251;-68
2023/12/04 13:50:09;;;;;;;0.52;0.52;;;1.20;99.90;;;;;;4957662;29;20165;-68
2023/12/04 13:52:35;;;;;;;0.50;0.50;;;1.20;99.90;;;;;;4956672;28;20547;-68
2023/12/04 13:55:08;;;;;;;0.30;0.30;;;1.20;99.90;;;;;;4938074;29;20173;-72
2023/12/04 13:57:43;;;;;;;0.32;0.32;;;1.20;99.90;;;;;;4938610;29;20177;-68
2023/12/04 14:00:10;;;;;;;0.30;0.30;;;1.30;99.90;;;;;;4938588;29;20204;-68
2023/12/04 14:02:37;;;;;;;0.35;0.35;;;1.20;99.90;;;;;;4938166;29;20288;-68
2023/12/04 14:05:03;;;;;;;0.40;0.40;;;1.30;99.90;;;;;;4937737;29;20647;-68
2023/12/04 14:07:28;;;;;;;0.60;0.60;;;1.30;99.90;;;;;;4945306;29;20193;-67
2023/12/04 14:09:54;;;;;;;0.43;0.43;;;1.20;99.90;;;;;;4957535;29;20176;-68
2023/12/04 14:12:20;;;;;;;0.33;0.33;;;1.30;99.90;;;;;;4957190;29;20172;-69
2023/12/04 14:14:46;;;;;;;0.33;0.33;;;1.20;99.90;;;;;;4956930;29;20173;-68
2023/12/04 14:17:12;;;;;;;0.40;0.40;;;1.30;99.90;;;;;;4957165;29;20193;-69
2023/12/04 14:19:39;;;;;;;0.30;0.30;;;1.30;99.90;;;;;;4957309;29;20639;-67
2023/12/04 14:22:05;;;;;;;0.40;0.40;;;1.30;99.90;;;;;;4956098;29;20375;-69
2023/12/04 14:24:31;;;;;;;0.38;0.38;;;1.30;99.90;;;;;;4940418;29;20517;-67
2023/12/04 14:26:56;;;;;;;0.33;0.33;;;1.30;99.90;;;;;;4937668;29;20197;-68
2023/12/04 14:29:22;;;;;;;0.40;0.40;;;1.40;99.90;;;;;;4937848;29;20182;-68
2023/12/04 14:31:47;;;;;;;0.40;0.40;;;1.40;99.90;;;;;;4936458;29;20647;-68
2023/12/04 14:34:13;;;;;;;0.40;0.40;;;1.40;99.90;;;;;;4920278;29;20235;-67
2023/12/04 14:36:39;;;;;;;0.30;0.30;;;1.40;99.90;;;;;;4947627;29;20204;-68
2023/12/04 14:39:06;;;;;;;0.47;0.47;;;1.40;99.90;;;;;;4956924;29;20222;-66
2023/12/04 14:41:31;;;;;;;0.40;0.40;;;1.40;99.90;;;;;;4956725;29;20181;-67
2023/12/04 14:43:57;;;;;;;0.40;0.40;;;1.40;99.90;;;;;;4956454;29;20340;-67
2023/12/04 14:46:23;;;;;;;0.50;0.50;;;1.50;99.90;;;;;;4956443;29;20424;-68
2023/12/04 14:48:49;;;;;;;0.50;0.50;;;1.50;99.90;;;;;;4950849;29;20510;-68
2023/12/04 14:51:15;;;;;;;0.40;0.40;;;1.50;99.90;;;;;;4937271;29;20252;-66
2023/12/04 14:53:46;;;;;;;0.40;0.40;;;1.50;99.90;;;;;;4920126;29;20588;-68
2023/12/04 15:10:05;;;;;;;1.23;1.23;;;1.40;99.90;;;;;;4956261;29;20172;-65
2023/12/04 15:14:37;;;;;;;0.32;0.32;;;1.40;99.90;;;;;;4955745;29;20173;-66
2023/12/04 15:17:30;;;;;;;0.40;0.40;;;1.40;99.90;;;;;;4940403;29;20205;-70
2023/12/04 15:22:25;;;;;;;0.40;0.40;;;1.60;99.90;;;;;;4955701;29;20192;-65
2023/12/04 15:24:50;;;;;;;0.40;0.40;;;1.50;99.90;;;;;;4955428;29;20175;-68
2023/12/04 15:27:17;;;;;;;0.40;0.40;;;1.60;99.90;;;;;;4956028;29;20169;-67
2023/12/04 15:29:43;;;;;;;0.40;0.40;;;1.60;99.90;;;;;;4955842;29;20173;-69
2023/12/04 15:32:08;;;;;;;0.40;0.40;;;1.60;99.90;;;;;;4937583;29;20264;-67
2023/12/04 15:34:34;;;;;;;0.40;0.40;;;1.60;99.90;;;;;;4936270;29;20260;-68
2023/12/04 15:37:00;;;;;;;0.40;0.40;;;1.60;99.90;;;;;;4919314;29;20196;-68
2023/12/04 15:39:25;;;;;;;0.40;0.40;;;1.60;99.90;;;;;;4936488;29;20170;-66
2023/12/04 15:41:51;;;;;;;0.50;0.50;;;1.60;99.90;;;;;;4936374;29;20174;-69
2023/12/04 15:44:17;;;;;;;0.50;0.50;;;1.60;99.90;;;;;;4938275;29;20184;-67
2023/12/04 15:46:42;;;;;;;0.30;0.30;;;1.60;99.90;;;;;;4955584;29;20710;-69
2023/12/04 15:49:08;;;;;;;0.43;0.43;;;1.60;99.90;;;;;;4955805;29;20173;-67
2023/12/04 15:51:33;;;;;;;0.40;0.40;;;1.60;99.90;;;;;;4955541;29;20176;-70
2023/12/04 15:53:59;;;;;;;0.47;0.47;;;1.60;99.90;;;;;;4955105;29;20179;-68
2023/12/04 15:56:25;;;;;;;0.90;0.90;;;1.60;99.90;;;;;;4945442;29;20186;-69
2023/12/04 15:58:50;;;;;;;0.43;0.43;;;1.70;99.90;;;;;;4927893;29;20414;-67
2023/12/04 16:01:16;;;;;;;0.40;0.40;;;1.60;99.90;;;;;;4936114;29;20205;-66
2023/12/04 16:03:42;;;;;;;0.40;0.40;;;1.60;99.90;;;;;;4935859;29;20194;-68
2023/12/04 16:06:09;;;;;;;0.60;0.60;;;1.70;99.90;;;;;;4935479;29;20193;-66
2023/12/04 16:08:34;;;;;;;0.50;0.50;;;1.70;99.90;;;;;;4935921;29;20182;-70
2023/12/04 16:11:00;;;;;;;0.50;0.50;;;1.70;99.90;;;;;;4932115;29;20180;-66
2023/12/04 16:13:25;;;;;;;0.40;0.40;;;1.70;99.90;;;;;;4952642;29;20177;-67
2023/12/04 16:15:51;;;;;;;0.40;0.40;;;1.80;99.90;;;;;;4953768;29;20200;-70
2023/12/04 16:18:17;;;;;;;0.30;0.30;;;1.70;99.90;;;;;;4952526;29;20181;-67
2023/12/04 16:20:48;;;;;;;0.43;0.43;;;1.80;99.90;;;;;;4954683;29;20638;-66
2023/12/04 16:23:14;;;;;;;0.30;0.30;;;1.80;99.90;;;;;;4954645;29;20287;-66
2023/12/04 16:25:40;;;;;;;0.50;0.50;;;1.80;99.90;;;;;;4954100;29;20224;-64
2023/12/04 16:28:09;;;;;;;0.50;0.50;;;1.80;99.90;;;;;;4938296;29;20632;-65
2023/12/04 16:30:38;;;;;;;0.40;0.40;;;1.80;99.90;;;;;;4933396;29;20514;-66
2023/12/04 16:33:03;;;;;;;0.30;0.30;;;1.80;99.90;;;;;;4935010;29;20237;-66
2023/12/04 16:35:29;;;;;;;0.40;0.40;;;1.80;99.90;;;;;;4934985;29;20205;-64
2023/12/04 16:37:56;;;;;;;0.60;0.60;;;1.70;99.90;;;;;;4936124;29;20173;-66
2023/12/04 16:40:21;;;;;;;0.40;0.40;;;1.80;99.90;;;;;;4948329;29;20243;-63
2023/12/04 16:42:47;;;;;;;0.40;0.40;;;1.80;99.90;;;;;;4953913;29;20197;-63
2023/12/04 16:45:13;;;;;;;0.40;0.40;;;1.80;99.90;;;;;;4934673;29;20450;-68
2023/12/04 16:47:39;;;;;;;1.53;0.97;;;1.80;99.90;;;;;;4939786;29;20792;-66
2023/12/04 16:50:04;;;;;;;0.47;0.47;;;1.80;99.90;;;;;;4936237;29;20182;-67
2023/12/04 16:52:30;;;;;;;0.37;0.37;;;1.80;99.90;;;;;;4934972;29;20173;-65
2023/12/04 16:54:56;;;;;;;0.40;0.40;;;1.80;99.90;;;;;;4938063;29;20483;-67
2023/12/04 16:57:21;;;;;;;0.40;0.40;;;1.90;99.90;;;;;;4935025;29;20189;-63
2023/12/04 16:59:47;;;;;;;0.30;0.30;;;1.90;99.90;;;;;;4919649;29;20211;-64
2023/12/04 17:02:13;;;;;;;0.40;0.40;;;1.90;99.90;;;;;;4936309;29;20189;-68
2023/12/04 17:04:39;;;;;;;0.40;0.40;;;1.90;99.90;;;;;;4934237;29;20305;-65
2023/12/04 17:07:05;;;;;;;0.40;0.40;;;1.90;99.90;;;;;;4935375;29;20276;-63
2023/12/04 17:09:31;;;;;;;0.50;0.50;;;1.90;99.90;;;;;;4934488;29;20680;-65
2023/12/04 17:11:56;;;;;;;0.30;0.30;;;1.90;99.90;;;;;;4934308;29;20652;-68
2023/12/04 17:14:22;;;;;;;0.40;0.40;;;1.90;99.90;;;;;;4934125;29;20203;-64
2023/12/04 17:16:48;;;;;;;0.40;0.40;;;2.00;99.90;;;;;;4934619;28;20221;-65
2023/12/04 17:19:14;;;;;;;0.30;0.30;;;2.00;99.90;;;;;;4937438;29;20252;-65
2023/12/04 17:21:39;;;;;;;0.50;0.50;;;2.00;99.90;;;;;;4935151;29;20177;-64
2023/12/04 17:24:05;;;;;;;0.40;0.40;;;2.00;99.90;;;;;;4919005;29;20551;-67
2023/12/04 17:26:31;;;;;;;0.33;0.33;;;2.00;99.90;;;;;;4936638;29;20245;-62
2023/12/04 17:28:57;;;;;;;0.40;0.40;;;1.90;99.90;;;;;;4921511;29;20421;-69
2023/12/04 17:31:22;;;;;;;1.33;0.90;;;1.90;99.90;;;;;;4938749;29;20437;-63
2023/12/04 17:33:48;;;;;;;0.40;0.40;;;1.90;99.90;;;;;;4938773;29;20421;-66
2023/12/04 17:36:14;;;;;;;0.40;0.40;;;2.00;99.90;;;;;;4937718;29;20201;-62
2023/12/04 17:38:42;;;;;;;0.40;0.40;;;2.00;99.90;;;;;;4937308;29;20177;-67
2023/12/04 17:41:10;;;;;;;0.77;0.77;;;2.00;99.90;;;;;;4937576;29;20249;-64
2023/12/04 17:43:36;;;;;;;0.30;0.30;;;2.00;99.90;;;;;;4937560;29;20225;-64
2023/12/04 17:46:02;;;;;;;0.40;0.40;;;2.00;99.90;;;;;;4937287;29;20232;-65
2023/12/04 17:48:27;;;;;;;0.30;0.30;;;2.00;99.90;;;;;;4937649;29;20216;-67
2023/12/04 17:50:53;;;;;;;0.37;0.37;;;2.00;99.90;;;;;;4937903;29;20581;-64
2023/12/04 17:53:19;;;;;;;0.53;0.53;;;2.00;99.90;;;;;;4938077;29;20184;-68
2023/12/04 17:55:44;;;;;;;0.40;0.40;;;1.90;99.90;;;;;;4937835;29;20249;-68
2023/12/04 17:58:13;;;;;;;0.40;0.40;;;1.90;99.90;;;;;;4938074;29;20640;-67
2023/12/04 18:00:47;;;;;;;0.40;0.40;;;1.80;99.90;;;;;;4941198;29;20546;-66
2023/12/04 18:03:13;;;;;;;0.40;0.40;;;1.80;99.90;;;;;;4944760;29;20200;-65
2023/12/04 18:05:40;;;;;;;3.03;2.73;;;1.60;99.90;;;;;;4937917;29;20541;-67
2023/12/04 18:08:10;;;;;;;0.50;0.50;;;1.50;99.90;;;;;;4921596;29;20193;-65
2023/12/04 18:10:38;;;;;;;0.35;0.35;;;1.50;99.90;;;;;;4937716;29;20186;-66
2023/12/04 18:13:03;;;;;;;0.40;0.40;;;1.40;99.90;;;;;;4938117;29;20252;-67
2023/12/04 18:15:29;;;;;;;0.43;0.43;;;1.40;99.90;;;;;;4937489;29;20305;-66
2023/12/04 18:17:54;;;;;;;0.60;0.60;;;1.40;99.90;;;;;;4938024;29;20528;-66